Time;durP1;ratioP1;P1;durP2;ratioP2;P2;SDS_P1;SDS_P2;PMS_P1;PMS_P2;Temp;Humidity;BMP_temperature;BMP_pressure;BME280_temperature;BME280_humidity;BME280_pressure;Samples;Min_cycle;Max_cycle;Signal;HPM_P1;HPM_P2
2023/05/29 00:01:11;;;;;;;12.70;4.30;;;;;;;9.29;65.84;100240.57;105487;1256;66364;-66
2023/05/29 00:03:59;;;;;;;10.60;3.40;;;;;;;9.26;65.38;100238.98;105491;1256;71975;-65
2023/05/29 00:06:48;;;;;;;11.60;3.60;;;;;;;9.23;65.10;100240.44;105396;1256;60555;-67
2023/05/29 00:09:37;;;;;;;11.20;3.80;;;;;;;9.19;65.08;100243.15;105494;1256;60534;-66
2023/05/29 00:12:25;;;;;;;10.60;3.90;;;;;;;9.17;65.27;100238.72;105621;1264;74621;-70
2023/05/29 00:15:13;;;;;;;9.30;3.30;;;;;;;9.14;65.48;100239.64;105660;1262;66746;-66
2023/05/29 00:18:01;;;;;;;10.20;3.40;;;;;;;9.11;65.96;100242.67;106035;1256;72396;-66
2023/05/29 00:20:50;;;;;;;8.60;3.40;;;;;;;9.09;66.37;100242.80;106988;1256;60341;-67
2023/05/29 00:23:38;;;;;;;12.10;4.10;;;;;;;9.08;66.99;100242.15;106149;1256;60537;-68
2023/05/29 00:26:28;;;;;;;9.20;3.30;;;;;;;9.06;67.51;100244.25;105701;1261;73969;-68
2023/05/29 00:29:18;;;;;;;11.40;3.80;;;;;;;9.04;68.00;100244.02;103303;1262;1003517;-67
2023/05/29 00:32:06;;;;;;;9.00;3.20;;;;;;;9.05;68.67;100247.70;105547;1256;71898;-67
2023/05/29 00:34:56;;;;;;;10.50;3.20;;;;;;;9.05;68.97;100251.27;105466;1257;60424;-63
2023/05/29 00:37:45;;;;;;;9.70;3.20;;;;;;;9.05;69.31;100248.59;105706;1259;60445;-66
2023/05/29 00:40:35;;;;;;;12.10;3.50;;;;;;;9.04;69.48;100245.12;105823;1254;72871;-66
2023/05/29 00:43:23;;;;;;;13.50;3.50;;;;;;;9.01;69.64;100249.55;105552;1256;66656;-68
2023/05/29 00:46:15;;;;;;;12.10;3.70;;;;;;;8.98;70.23;100248.66;105568;1254;71898;-67
2023/05/29 00:49:06;;;;;;;13.40;3.80;;;;;;;8.97;70.41;100250.87;105462;1254;60479;-68
2023/05/29 00:51:56;;;;;;;10.10;3.50;;;;;;;8.96;70.51;100251.65;105420;1259;60470;-67
2023/05/29 00:54:46;;;;;;;13.60;3.70;;;;;;;8.94;70.90;100248.21;105844;1259;73715;-66
2023/05/29 00:57:37;;;;;;;13.30;3.90;;;;;;;8.96;71.11;100255.57;105751;1259;68166;-67
2023/05/29 01:00:25;;;;;;;11.70;4.50;;;;;;;-128.00;-1.00;-1.00;103053;1261;1015384;-65
2023/05/29 01:03:16;;;;;;;12.10;4.10;;;;;;;-128.00;-1.00;-1.00;103213;1256;1010299;-66
2023/05/29 01:06:07;;;;;;;11.60;3.70;;;;;;;-128.00;-1.00;-1.00;103271;1254;1011836;-69
2023/05/29 01:08:56;;;;;;;11.60;3.70;;;;;;;-128.00;-1.00;-1.00;103146;1256;1013774;-68
2023/05/29 01:12:43;;;;;;;13.80;4.30;;;;;;;-128.00;-1.00;-1.00;103098;1257;1013232;-67
2023/05/29 01:15:55;;;;;;;12.40;4.10;;;;;;;-128.00;-1.00;-1.00;102504;1264;1013314;-68
2023/05/29 01:19:18;;;;;;;12.00;4.10;;;;;;;-128.00;-1.00;-1.00;102650;1270;1010881;-70
2023/05/29 01:22:31;;;;;;;13.40;4.10;;;;;;;-128.00;-1.00;-1.00;102874;1264;1011337;-66
2023/05/29 01:25:43;;;;;;;9.30;3.50;;;;;;;-128.00;-1.00;-1.00;102815;1270;1013821;-66
2023/05/29 01:28:41;;;;;;;10.00;3.80;;;;;;;-128.00;-1.00;-1.00;102951;1265;1012173;-65
2023/05/29 01:31:31;;;;;;;12.80;3.30;;;;;;;-128.00;-1.00;-1.00;102475;1268;1012749;-66
2023/05/29 01:34:19;;;;;;;12.40;4.40;;;;;;;-128.00;-1.00;-1.00;102438;1268;1010425;-65
2023/05/29 01:37:08;;;;;;;13.90;4.90;;;;;;;-128.00;-1.00;-1.00;102481;1262;1011183;-66
2023/05/29 01:39:56;;;;;;;10.80;3.80;;;;;;;-128.00;-1.00;-1.00;102449;1268;1012613;-66
2023/05/29 01:42:45;;;;;;;12.40;3.70;;;;;;;-128.00;-1.00;-1.00;102193;1264;1014351;-65
2023/05/29 01:45:36;;;;;;;12.50;3.90;;;;;;;-128.00;-1.00;-1.00;102597;1264;1012973;-65
2023/05/29 01:48:25;;;;;;;11.50;4.10;;;;;;;-128.00;-1.00;-1.00;102543;1263;1009895;-67
2023/05/29 01:51:17;;;;;;;11.50;3.50;;;;;;;-128.00;-1.00;-1.00;102466;1272;1011764;-66
2023/05/29 01:54:07;;;;;;;11.20;4.10;;;;;;;-128.00;-1.00;-1.00;102658;1262;1013741;-65
2023/05/29 01:56:55;;;;;;;10.50;3.90;;;;;;;-128.00;-1.00;-1.00;102605;1265;1012936;-66
2023/05/29 01:59:44;;;;;;;10.10;3.80;;;;;;;-128.00;-1.00;-1.00;102763;1263;1013094;-66
2023/05/29 02:02:37;;;;;;;12.90;4.10;;;;;;;-128.00;-1.00;-1.00;102779;1267;1009872;-67
2023/05/29 02:05:25;;;;;;;14.70;3.80;;;;;;;-128.00;-1.00;-1.00;102829;1261;1010856;-66
2023/05/29 02:08:13;;;;;;;11.10;4.10;;;;;;;-128.00;-1.00;-1.00;102587;1264;1012172;-69
2023/05/29 02:11:04;;;;;;;10.50;3.70;;;;;;;-128.00;-1.00;-1.00;102552;1261;1013021;-65
2023/05/29 02:13:52;;;;;;;12.10;4.10;;;;;;;-128.00;-1.00;-1.00;102761;1262;1017421;-67
2023/05/29 02:16:43;;;;;;;8.90;3.40;;;;;;;-128.00;-1.00;-1.00;102684;1263;1010304;-67
2023/05/29 02:19:32;;;;;;;13.30;3.90;;;;;;;-128.00;-1.00;-1.00;102930;1264;1010965;-67
2023/05/29 02:22:20;;;;;;;11.40;3.60;;;;;;;-128.00;-1.00;-1.00;102770;1259;1013037;-67
2023/05/29 02:25:08;;;;;;;10.80;3.60;;;;;;;-128.00;-1.00;-1.00;103060;1259;1013617;-67
2023/05/29 02:27:57;;;;;;;12.10;4.20;;;;;;;-128.00;-1.00;-1.00;102889;1259;1014539;-67
2023/05/29 02:30:45;;;;;;;12.00;4.30;;;;;;;-128.00;-1.00;-1.00;102883;1260;1010171;-67
2023/05/29 02:33:34;;;;;;;11.10;3.80;;;;;;;-128.00;-1.00;-1.00;103095;1263;1011382;-66
2023/05/29 02:36:22;;;;;;;14.50;3.90;;;;;;;-128.00;-1.00;-1.00;102841;1258;1012769;-68
2023/05/29 02:39:11;;;;;;;11.10;3.70;;;;;;;-128.00;-1.00;-1.00;102775;1257;1013411;-66
2023/05/29 02:41:59;;;;;;;9.50;3.70;;;;;;;-128.00;-1.00;-1.00;103041;1261;1012721;-66
2023/05/29 02:44:48;;;;;;;10.60;4.40;;;;;;;-128.00;-1.00;-1.00;102864;1256;1009590;-66
2023/05/29 02:47:39;;;;;;;10.80;3.70;;;;;;;-128.00;-1.00;-1.00;102893;1259;1011723;-66
2023/05/29 02:50:27;;;;;;;11.40;3.50;;;;;;;-128.00;-1.00;-1.00;102973;1260;1015209;-67
2023/05/29 02:53:16;;;;;;;11.60;4.30;;;;;;;-128.00;-1.00;-1.00;102759;1257;1013174;-67
2023/05/29 02:56:06;;;;;;;10.20;3.50;;;;;;;-128.00;-1.00;-1.00;102827;1255;1012463;-67
2023/05/29 02:58:54;;;;;;;12.40;3.80;;;;;;;-128.00;-1.00;-1.00;102796;1257;1012492;-65
2023/05/29 03:01:42;;;;;;;10.00;4.10;;;;;;;-128.00;-1.00;-1.00;102909;1256;1013283;-67
2023/05/29 03:04:32;;;;;;;12.10;4.00;;;;;;;-128.00;-1.00;-1.00;102856;1256;1013294;-67
2023/05/29 03:07:20;;;;;;;11.70;3.80;;;;;;;-128.00;-1.00;-1.00;102994;1256;1013288;-66
2023/05/29 03:10:09;;;;;;;10.60;3.40;;;;;;;-128.00;-1.00;-1.00;102929;1256;1013841;-66
2023/05/29 03:12:58;;;;;;;11.80;4.00;;;;;;;-128.00;-1.00;-1.00;103165;1262;1010085;-68
2023/05/29 03:15:47;;;;;;;10.10;3.60;;;;;;;-128.00;-1.00;-1.00;103030;1259;1011142;-69
2023/05/29 03:18:36;;;;;;;9.40;3.30;;;;;;;-128.00;-1.00;-1.00;102946;1259;1013315;-67
2023/05/29 03:21:24;;;;;;;11.70;4.10;;;;;;;-128.00;-1.00;-1.00;102677;1264;1014615;-67
2023/05/29 03:24:16;;;;;;;9.50;3.50;;;;;;;-128.00;-1.00;-1.00;102794;1266;1012677;-67
2023/05/29 03:27:04;;;;;;;11.20;3.50;;;;;;;-128.00;-1.00;-1.00;102927;1263;1010434;-67
2023/05/29 03:29:54;;;;;;;9.50;3.20;;;;;;;-128.00;-1.00;-1.00;102851;1263;1011628;-67
2023/05/29 03:32:43;;;;;;;12.00;4.20;;;;;;;-128.00;-1.00;-1.00;102722;1258;1015271;-67
2023/05/29 03:35:33;;;;;;;8.40;3.70;;;;;;;-128.00;-1.00;-1.00;102775;1259;1013265;-68
2023/05/29 03:38:24;;;;;;;9.80;3.70;;;;;;;-128.00;-1.00;-1.00;102885;1260;1013923;-68
2023/05/29 03:41:14;;;;;;;11.10;4.10;;;;;;;-128.00;-1.00;-1.00;102811;1267;1012040;-67
2023/05/29 03:44:03;;;;;;;11.30;4.00;;;;;;;-128.00;-1.00;-1.00;102552;1263;1014228;-69
2023/05/29 03:46:52;;;;;;;11.30;3.90;;;;;;;-128.00;-1.00;-1.00;102756;1262;1013067;-67
2023/05/29 03:49:40;;;;;;;12.60;3.80;;;;;;;-128.00;-1.00;-1.00;102633;1261;1013721;-68
2023/05/29 03:52:28;;;;;;;14.40;3.50;;;;;;;-128.00;-1.00;-1.00;102899;1261;1013124;-67
2023/05/29 03:55:16;;;;;;;11.90;3.80;;;;;;;-128.00;-1.00;-1.00;102712;1259;1009240;-65
2023/05/29 03:58:06;;;;;;;11.10;3.80;;;;;;;-128.00;-1.00;-1.00;102820;1261;1010504;-66
2023/05/29 04:00:54;;;;;;;10.20;3.60;;;;;;;-128.00;-1.00;-1.00;102592;1267;1012947;-64
2023/05/29 04:03:44;;;;;;;10.30;2.90;;;;;;;-128.00;-1.00;-1.00;103333;1265;1012775;-67
2023/05/29 04:06:38;;;;;;;13.50;3.50;;;;;;;-128.00;-1.00;-1.00;103673;1259;1012949;-66
2023/05/29 04:09:26;;;;;;;14.30;3.90;;;;;;;-128.00;-1.00;-1.00;103473;1260;1010725;-68
2023/05/29 04:12:16;;;;;;;10.30;4.00;;;;;;;-128.00;-1.00;-1.00;103437;1257;1011787;-67
2023/05/29 04:15:06;;;;;;;9.50;3.60;;;;;;;-128.00;-1.00;-1.00;103149;1255;1016157;-68
2023/05/29 04:17:54;;;;;;;11.60;3.00;;;;;;;-128.00;-1.00;-1.00;102816;1262;1013356;-68
2023/05/29 04:20:45;;;;;;;10.60;3.10;;;;;;;-128.00;-1.00;-1.00;103079;1264;1013324;-67
2023/05/29 04:23:35;;;;;;;10.20;3.00;;;;;;;-128.00;-1.00;-1.00;102713;1264;1010283;-68
2023/05/29 04:26:26;;;;;;;8.70;2.50;;;;;;;-128.00;-1.00;-1.00;102891;1262;1011703;-69
2023/05/29 04:29:15;;;;;;;9.10;2.60;;;;;;;-128.00;-1.00;-1.00;102970;1261;1013217;-68
2023/05/29 04:32:06;;;;;;;8.90;2.50;;;;;;;-128.00;-1.00;-1.00;102739;1259;1013509;-71
2023/05/29 04:34:55;;;;;;;10.90;2.80;;;;;;;-128.00;-1.00;-1.00;102793;1259;1013653;-66
2023/05/29 04:37:44;;;;;;;10.20;3.00;;;;;;;-128.00;-1.00;-1.00;103335;1260;1009918;-69
2023/05/29 04:40:33;;;;;;;9.70;3.10;;;;;;;-128.00;-1.00;-1.00;102875;1262;1012677;-70
2023/05/29 04:43:22;;;;;;;12.10;2.80;;;;;;;-128.00;-1.00;-1.00;102925;1267;1013307;-67
2023/05/29 04:46:18;;;;;;;10.50;2.70;;;;;;;-128.00;-1.00;-1.00;103067;1262;1013178;-65
2023/05/29 04:49:06;;;;;;;10.30;2.40;;;;;;;-128.00;-1.00;-1.00;102936;1259;1013381;-67
2023/05/29 04:51:55;;;;;;;8.90;2.50;;;;;;;-128.00;-1.00;-1.00;102958;1258;1010500;-68
2023/05/29 04:54:44;;;;;;;7.70;2.10;;;;;;;-128.00;-1.00;-1.00;103403;1257;1013793;-68
2023/05/29 04:57:33;;;;;;;10.60;2.50;;;;;;;-128.00;-1.00;-1.00;102897;1260;1012706;-68
2023/05/29 05:00:22;;;;;;;8.80;2.30;;;;;;;-128.00;-1.00;-1.00;103069;1263;1012880;-68
2023/05/29 05:03:10;;;;;;;8.30;2.20;;;;;;;-128.00;-1.00;-1.00;103209;1257;1013223;-72
2023/05/29 05:06:02;;;;;;;7.40;2.10;;;;;;;-128.00;-1.00;-1.00;102930;1261;1010649;-70
2023/05/29 05:08:52;;;;;;;8.70;2.40;;;;;;;-128.00;-1.00;-1.00;103244;1257;1011889;-72
2023/05/29 05:11:40;;;;;;;8.30;1.90;;;;;;;-128.00;-1.00;-1.00;103249;1254;1013353;-69
2023/05/29 05:14:30;;;;;;;8.70;2.30;;;;;;;-128.00;-1.00;-1.00;103308;1254;1013307;-70
2023/05/29 05:17:18;;;;;;;10.00;2.30;;;;;;;-128.00;-1.00;-1.00;103117;1260;1015645;-69
2023/05/29 05:20:08;;;;;;;11.30;2.00;;;;;;;-128.00;-1.00;-1.00;103438;1254;1010478;-70
2023/05/29 05:22:57;;;;;;;8.60;2.20;;;;;;;-128.00;-1.00;-1.00;103376;1273;1011590;-70
2023/05/29 05:25:46;;;;;;;9.70;2.00;;;;;;;-128.00;-1.00;-1.00;103060;1263;1012767;-68
2023/05/29 05:28:35;;;;;;;8.70;2.00;;;;;;;-128.00;-1.00;-1.00;103138;1260;1012557;-67
2023/05/29 05:31:25;;;;;;;10.30;2.30;;;;;;;-128.00;-1.00;-1.00;103421;1258;1013983;-66
2023/05/29 05:34:14;;;;;;;10.30;2.70;;;;;;;-128.00;-1.00;-1.00;103258;1257;1010183;-71
2023/05/29 05:37:04;;;;;;;9.60;2.10;;;;;;;-128.00;-1.00;-1.00;103224;1263;1011339;-71
2023/05/29 05:39:53;;;;;;;9.40;2.30;;;;;;;-128.00;-1.00;-1.00;103152;1264;1013366;-71
2023/05/29 05:42:42;;;;;;;11.60;2.60;;;;;;;-128.00;-1.00;-1.00;103105;1257;1013404;-70
2023/05/29 05:45:31;;;;;;;10.30;1.90;;;;;;;-128.00;-1.00;-1.00;102987;1264;1013376;-70
2023/05/29 05:48:20;;;;;;;11.80;3.00;;;;;;;-128.00;-1.00;-1.00;102889;1257;1010308;-69
2023/05/29 05:51:08;;;;;;;10.70;2.30;;;;;;;-128.00;-1.00;-1.00;102794;1257;1010726;-73
2023/05/29 05:53:58;;;;;;;8.00;2.10;;;;;;;-128.00;-1.00;-1.00;102928;1265;1014453;-72
2023/05/29 05:56:46;;;;;;;8.90;2.30;;;;;;;-128.00;-1.00;-1.00;102852;1257;1012923;-68
2023/05/29 05:59:35;;;;;;;16.60;5.00;;;;;;;-128.00;-1.00;-1.00;103056;1260;1012868;-71
2023/05/29 06:02:24;;;;;;;8.90;2.50;;;;;;;-128.00;-1.00;-1.00;102903;1256;1010155;-68
2023/05/29 06:05:13;;;;;;;9.70;2.00;;;;;;;-128.00;-1.00;-1.00;103037;1256;1012626;-70
2023/05/29 06:08:02;;;;;;;10.00;2.00;;;;;;;-128.00;-1.00;-1.00;102988;1257;1013659;-70
2023/05/29 06:10:50;;;;;;;9.30;2.00;;;;;;;-128.00;-1.00;-1.00;103234;1257;1013361;-71
2023/05/29 06:13:39;;;;;;;9.80;1.90;;;;;;;-128.00;-1.00;-1.00;102863;1256;1015112;-74
2023/05/29 06:16:36;;;;;;;8.80;1.80;;;;;;;-128.00;-1.00;-1.00;102899;1257;1012275;-74
2023/05/29 06:19:25;;;;;;;9.70;2.00;;;;;;;-128.00;-1.00;-1.00;103136;1256;1011471;-73
2023/05/29 06:22:20;;;;;;;10.00;2.10;;;;;;;-128.00;-1.00;-1.00;103244;1261;1012478;-71
2023/05/29 06:25:09;;;;;;;10.60;2.00;;;;;;;-128.00;-1.00;-1.00;103357;1260;1011844;-73
2023/05/29 06:27:58;;;;;;;10.30;2.20;;;;;;;-128.00;-1.00;-1.00;103081;1257;1014699;-71
2023/05/29 06:30:46;;;;;;;9.90;2.10;;;;;;;-128.00;-1.00;-1.00;102931;1256;1010000;-74
2023/05/29 06:33:37;;;;;;;10.20;2.10;;;;;;;-128.00;-1.00;-1.00;103071;1258;1010716;-74
2023/05/29 06:36:26;;;;;;;7.70;1.70;;;;;;;-128.00;-1.00;-1.00;102973;1260;1013203;-73
2023/05/29 06:39:15;;;;;;;8.70;1.90;;;;;;;-128.00;-1.00;-1.00;103117;1258;1012488;-73
2023/05/29 06:42:05;;;;;;;8.90;2.00;;;;;;;-128.00;-1.00;-1.00;103200;1260;1012805;-73
2023/05/29 06:45:01;;;;;;;8.80;2.10;;;;;;;-128.00;-1.00;-1.00;105858;1257;1010437;-74
2023/05/29 06:47:50;;;;;;;6.80;1.50;;;;;;;-128.00;-1.00;-1.00;103717;1257;1011143;-72
2023/05/29 06:50:38;;;;;;;8.90;2.00;;;;;;;-128.00;-1.00;-1.00;103131;1257;1013941;-74
2023/05/29 06:53:46;;;;;;;7.70;1.90;;;;;;;-128.00;-1.00;-1.00;102978;1259;1013060;-74
2023/05/29 06:56:35;;;;;;;8.00;1.90;;;;;;;-128.00;-1.00;-1.00;103386;1254;1013028;-74
2023/05/29 06:59:24;;;;;;;9.30;1.60;;;;;;;-128.00;-1.00;-1.00;103341;1253;1010127;-71
2023/05/29 07:02:12;;;;;;;8.20;1.70;;;;;;;-128.00;-1.00;-1.00;103096;1254;1011954;-73
2023/05/29 07:05:01;;;;;;;7.70;1.70;;;;;;;-128.00;-1.00;-1.00;103103;1254;1015050;-74
2023/05/29 07:07:49;;;;;;;8.70;1.70;;;;;;;-128.00;-1.00;-1.00;103035;1254;1012402;-72
2023/05/29 07:10:37;;;;;;;9.20;1.80;;;;;;;-128.00;-1.00;-1.00;103293;1254;1012952;-71
2023/05/29 07:13:27;;;;;;;11.30;2.50;;;;;;;-128.00;-1.00;-1.00;103284;1253;1010337;-71
2023/05/29 07:16:15;;;;;;;8.00;1.80;;;;;;;-128.00;-1.00;-1.00;103095;1254;1011167;-74
2023/05/29 07:19:25;;;;;;;7.50;1.50;;;;;;;-128.00;-1.00;-1.00;103075;1254;1013482;-73
2023/05/29 07:22:14;;;;;;;7.80;1.40;;;;;;;-128.00;-1.00;-1.00;102994;1253;1014108;-73
2023/05/29 07:25:03;;;;;;;7.70;1.60;;;;;;;-128.00;-1.00;-1.00;103028;1253;1013559;-71
2023/05/29 07:27:52;;;;;;;7.30;1.40;;;;;;;-128.00;-1.00;-1.00;103094;1254;1011407;-71
2023/05/29 07:30:40;;;;;;;7.60;1.40;;;;;;;-128.00;-1.00;-1.00;103113;1257;1011209;-75
2023/05/29 07:33:28;;;;;;;7.80;1.50;;;;;;;-128.00;-1.00;-1.00;103836;1258;1013756;-76
2023/05/29 07:36:18;;;;;;;7.10;1.70;;;;;;;-128.00;-1.00;-1.00;103354;1262;1016701;-74
2023/05/29 07:39:07;;;;;;;7.00;1.40;;;;;;;-128.00;-1.00;-1.00;102917;1257;1012855;-74
2023/05/29 07:41:56;;;;;;;6.40;1.90;;;;;;;-128.00;-1.00;-1.00;103226;1260;1012844;-72
2023/05/29 07:44:45;;;;;;;7.90;1.40;;;;;;;-128.00;-1.00;-1.00;102686;1265;1010613;-73
2023/05/29 07:47:33;;;;;;;7.40;1.40;;;;;;;-128.00;-1.00;-1.00;102699;1259;1013941;-75
2023/05/29 07:50:25;;;;;;;7.10;1.50;;;;;;;-128.00;-1.00;-1.00;103326;1265;1012597;-71
2023/05/29 07:53:13;;;;;;;8.00;1.40;;;;;;;-128.00;-1.00;-1.00;103109;1261;1013376;-74
2023/05/29 07:56:03;;;;;;;6.90;1.60;;;;;;;-128.00;-1.00;-1.00;102857;1262;1010214;-71
2023/05/29 07:58:54;;;;;;;10.90;1.90;;;;;;;-128.00;-1.00;-1.00;102780;1262;1011029;-72
2023/05/29 08:01:44;;;;;;;9.10;1.70;;;;;;;-128.00;-1.00;-1.00;102755;1264;1013104;-72
2023/05/29 08:04:34;;;;;;;9.50;1.70;;;;;;;-128.00;-1.00;-1.00;102583;1264;1013243;-74
2023/05/29 08:07:23;;;;;;;7.40;1.60;;;;;;;-128.00;-1.00;-1.00;102872;1261;1012872;-75
2023/05/29 08:10:11;;;;;;;6.80;1.50;;;;;;;-128.00;-1.00;-1.00;102666;1261;1010086;-77
2023/05/29 08:12:59;;;;;;;7.20;1.50;;;;;;;-128.00;-1.00;-1.00;102689;1259;1011919;-75
2023/05/29 08:15:47;;;;;;;9.80;1.60;;;;;;;-128.00;-1.00;-1.00;102609;1260;1015763;-74
2023/05/29 08:18:36;;;;;;;6.80;1.50;;;;;;;-128.00;-1.00;-1.00;102636;1261;1013553;-73
2023/05/29 08:21:25;;;;;;;8.70;2.10;;;;;;;-128.00;-1.00;-1.00;102648;1259;1012462;-75
2023/05/29 08:24:14;;;;;;;7.80;1.40;;;;;;;-128.00;-1.00;-1.00;102614;1259;1009435;-71
2023/05/29 08:27:04;;;;;;;7.80;1.40;;;;;;;-128.00;-1.00;-1.00;102719;1259;1012157;-71
2023/05/29 08:29:54;;;;;;;7.80;1.40;;;;;;;-128.00;-1.00;-1.00;102938;1254;1013140;-74
2023/05/29 08:32:42;;;;;;;8.40;1.80;;;;;;;-128.00;-1.00;-1.00;103010;1259;1012971;-74
2023/05/29 08:35:30;;;;;;;8.20;1.60;;;;;;;-128.00;-1.00;-1.00;103066;1254;1013727;-73
2023/05/29 08:38:20;;;;;;;9.50;1.70;;;;;;;-128.00;-1.00;-1.00;102930;1254;1010455;-75
2023/05/29 08:41:17;;;;;;;6.50;1.30;;;;;;;-128.00;-1.00;-1.00;103261;1254;1012174;-73
2023/05/29 08:44:07;;;;;;;7.10;1.40;;;;;;;-128.00;-1.00;-1.00;103158;1257;1013134;-70
2023/05/29 08:47:01;;;;;;;6.70;1.30;;;;;;;-128.00;-1.00;-1.00;103139;1254;1013294;-70
2023/05/29 08:49:53;;;;;;;7.00;1.10;;;;;;;-128.00;-1.00;-1.00;102931;1254;1012584;-71
2023/05/29 08:52:41;;;;;;;8.60;1.60;;;;;;;-128.00;-1.00;-1.00;103084;1253;1013112;-71
2023/05/29 08:55:30;;;;;;;9.70;1.80;;;;;;;-128.00;-1.00;-1.00;102976;1253;1013290;-72
2023/05/29 08:58:23;;;;;;;6.40;1.10;;;;;;;-128.00;-1.00;-1.00;103068;1253;1012722;-69
2023/05/29 09:01:12;;;;;;;6.00;1.10;;;;;;;-128.00;-1.00;-1.00;103135;1254;1014086;-70
2023/05/29 09:04:01;;;;;;;8.50;1.30;;;;;;;-128.00;-1.00;-1.00;102991;1253;1013979;-74
2023/05/29 09:06:55;;;;;;;8.40;1.80;;;;;;;-128.00;-1.00;-1.00;102993;1254;1010231;-70
2023/05/29 09:09:46;;;;;;;6.60;1.20;;;;;;;-128.00;-1.00;-1.00;103075;1253;1011562;-71
2023/05/29 09:12:35;;;;;;;6.80;1.30;;;;;;;-128.00;-1.00;-1.00;102991;1253;1013362;-69
2023/05/29 09:15:23;;;;;;;8.70;2.90;;;;;;;-128.00;-1.00;-1.00;103047;1257;1013217;-74
2023/05/29 09:18:13;;;;;;;7.20;1.40;;;;;;;-128.00;-1.00;-1.00;103009;1254;1013539;-69
2023/05/29 09:21:10;;;;;;;6.50;1.20;;;;;;;-128.00;-1.00;-1.00;103277;1257;1010369;-73
2023/05/29 09:24:05;;;;;;;7.70;1.30;;;;;;;-128.00;-1.00;-1.00;103091;1253;1011848;-72
2023/05/29 09:26:53;;;;;;;7.10;1.10;;;;;;;-128.00;-1.00;-1.00;103264;1253;1013127;-71
2023/05/29 09:29:45;;;;;;;6.80;1.10;;;;;;;-128.00;-1.00;-1.00;103041;1262;1013267;-74
2023/05/29 09:32:34;;;;;;;6.90;1.10;;;;;;;-128.00;-1.00;-1.00;103116;1253;1013035;-69
2023/05/29 09:35:22;;;;;;;7.70;1.20;;;;;;;-128.00;-1.00;-1.00;103097;1254;1010089;-73
2023/05/29 09:38:16;;;;;;;5.40;1.00;;;;;;;-128.00;-1.00;-1.00;103090;1253;1011781;-69
2023/05/29 09:41:24;;;;;;;6.90;1.00;;;;;;;-128.00;-1.00;-1.00;103961;1257;1012983;-76
2023/05/29 09:44:15;;;;;;;4.70;1.10;;;;;;;-128.00;-1.00;-1.00;103202;1257;1012064;-74
2023/05/29 09:47:04;;;;;;;5.50;1.10;;;;;;;-128.00;-1.00;-1.00;103143;1254;1014348;-74
2023/05/29 09:49:53;;;;;;;7.70;1.50;;;;;;;-128.00;-1.00;-1.00;103230;1254;1010391;-76
2023/05/29 09:52:41;;;;;;;6.70;1.20;;;;;;;-128.00;-1.00;-1.00;102999;1259;1011570;-73
2023/05/29 09:55:33;;;;;;;6.40;1.20;;;;;;;-128.00;-1.00;-1.00;103043;1264;1013279;-72
2023/05/29 09:58:23;;;;;;;5.90;1.00;;;;;;;-128.00;-1.00;-1.00;103071;1259;1013621;-73
2023/05/29 10:01:16;;;;;;;8.80;1.50;;;;;;;-128.00;-1.00;-1.00;103056;1254;1015079;-72
2023/05/29 10:04:04;;;;;;;6.70;1.20;;;;;;;-128.00;-1.00;-1.00;103015;1254;1009992;-71
2023/05/29 10:06:56;;;;;;;5.10;1.00;;;;;;;-128.00;-1.00;-1.00;102943;1258;1011411;-70
2023/05/29 10:09:53;;;;;;;6.30;1.10;;;;;;;-128.00;-1.00;-1.00;103309;1254;1013153;-69
2023/05/29 10:12:50;;;;;;;7.20;1.50;;;;;;;-128.00;-1.00;-1.00;103014;1254;1012342;-70
2023/05/29 10:15:42;;;;;;;7.10;1.40;;;;;;;-128.00;-1.00;-1.00;103009;1254;1014559;-73
2023/05/29 10:18:55;;;;;;;6.10;1.30;;;;;;;-128.00;-1.00;-1.00;102918;1254;1010246;-71
2023/05/29 10:21:44;;;;;;;6.90;1.10;;;;;;;-128.00;-1.00;-1.00;103179;1254;1011748;-71
2023/05/29 10:24:37;;;;;;;6.00;1.00;;;;;;;-128.00;-1.00;-1.00;102965;1262;1013428;-73
2023/05/29 10:27:26;;;;;;;7.30;1.40;;;;;;;-128.00;-1.00;-1.00;102869;1256;1012374;-70
2023/05/29 10:30:45;;;;;;;7.50;1.30;;;;;;;-128.00;-1.00;-1.00;103020;1254;1013256;-71
2023/05/29 10:34:31;;;;;;;7.10;1.20;;;;;;;-128.00;-1.00;-1.00;103045;1254;1010165;-71
2023/05/29 10:38:10;;;;;;;7.10;1.30;;;;;;;-128.00;-1.00;-1.00;103333;1255;1011153;-71
2023/05/29 10:41:26;;;;;;;7.00;1.20;;;;;;;-128.00;-1.00;-1.00;103513;1253;1013762;-68
2023/05/29 10:44:30;;;;;;;5.60;1.00;;;;;;;-128.00;-1.00;-1.00;103193;1257;1015410;-69
2023/05/29 10:47:25;;;;;;;6.80;1.30;;;;;;;-128.00;-1.00;-1.00;103184;1254;1012932;-71
2023/05/29 10:50:38;;;;;;;7.80;1.40;;;;;;;-128.00;-1.00;-1.00;102976;1253;1012723;-73
2023/05/29 10:53:31;;;;;;;8.10;1.60;;;;;;;-128.00;-1.00;-1.00;103249;1253;1011163;-71
2023/05/29 10:56:28;;;;;;;5.70;1.10;;;;;;;-128.00;-1.00;-1.00;103015;1253;1013269;-73
2023/05/29 10:59:17;;;;;;;7.40;1.60;;;;;;;-128.00;-1.00;-1.00;102987;1257;1013821;-69
2023/05/29 11:02:06;;;;;;;7.30;1.40;;;;;;;-128.00;-1.00;-1.00;103458;1254;1013588;-70
2023/05/29 11:05:27;;;;;;;9.20;1.60;;;;;;;-128.00;-1.00;-1.00;103326;1253;1009512;-69
2023/05/29 11:08:15;;;;;;;7.60;1.20;;;;;;;-128.00;-1.00;-1.00;102817;1267;1011895;-69
2023/05/29 11:11:05;;;;;;;5.90;1.40;;;;;;;-128.00;-1.00;-1.00;102677;1265;1012553;-70
2023/05/29 11:13:56;;;;;;;6.40;1.20;;;;;;;-128.00;-1.00;-1.00;103346;1261;1013090;-69
2023/05/29 11:16:44;;;;;;;7.30;1.40;;;;;;;-128.00;-1.00;-1.00;103241;1262;1013410;-68
2023/05/29 11:19:33;;;;;;;7.40;1.50;;;;;;;-128.00;-1.00;-1.00;102737;1267;1010029;-69
2023/05/29 11:22:31;;;;;;;8.70;1.30;;;;;;;-128.00;-1.00;-1.00;102971;1262;1011102;-67
2023/05/29 11:25:20;;;;;;;9.90;1.50;;;;;;;-128.00;-1.00;-1.00;102664;1261;1014172;-69
2023/05/29 11:28:10;;;;;;;8.80;2.60;;;;;;;-128.00;-1.00;-1.00;102697;1260;1013021;-70
2023/05/29 11:31:04;;;;;;;9.90;1.50;;;;;;;-128.00;-1.00;-1.00;102526;1262;1013629;-69
2023/05/29 11:33:54;;;;;;;8.80;1.90;;;;;;;-128.00;-1.00;-1.00;102580;1267;1009936;-70
2023/05/29 11:36:44;;;;;;;8.40;1.40;;;;;;;-128.00;-1.00;-1.00;102404;1264;1011881;-69
2023/05/29 11:39:37;;;;;;;7.20;1.50;;;;;;;-128.00;-1.00;-1.00;102571;1264;1013012;-71
2023/05/29 11:42:25;;;;;;;9.20;1.60;;;;;;;-128.00;-1.00;-1.00;102831;1264;1014117;-68
2023/05/29 11:45:15;;;;;;;8.30;1.60;;;;;;;-128.00;-1.00;-1.00;102978;1257;1015439;-70
2023/05/29 11:48:03;;;;;;;8.50;2.00;;;;;;;-128.00;-1.00;-1.00;102827;1262;1010660;-70
2023/05/29 11:50:52;;;;;;;9.80;1.50;;;;;;;-128.00;-1.00;-1.00;103042;1257;1010498;-68
2023/05/29 11:53:43;;;;;;;9.50;1.70;;;;;;;-128.00;-1.00;-1.00;102975;1258;1012862;-68
2023/05/29 11:56:31;;;;;;;7.70;1.60;;;;;;;-128.00;-1.00;-1.00;103060;1258;1012125;-70
2023/05/29 11:59:19;;;;;;;7.20;1.60;;;;;;;-128.00;-1.00;-1.00;102778;1257;1012945;-71
2023/05/29 12:02:08;;;;;;;8.90;1.80;;;;;;;-128.00;-1.00;-1.00;102969;1263;1010243;-70
2023/05/29 12:05:02;;;;;;;8.60;1.60;;;;;;;-128.00;-1.00;-1.00;103348;1257;1011410;-68
2023/05/29 12:07:56;;;;;;;6.40;1.40;;;;;;;-128.00;-1.00;-1.00;103881;1253;1013006;-69
2023/05/29 12:10:50;;;;;;;10.30;1.70;;;;;;;-128.00;-1.00;-1.00;103519;1253;1011615;-72
2023/05/29 12:13:38;;;;;;;8.60;1.50;;;;;;;-128.00;-1.00;-1.00;103332;1253;1013368;-71
2023/05/29 12:16:31;;;;;;;8.40;1.60;;;;;;;-128.00;-1.00;-1.00;103509;1254;1010890;-70
2023/05/29 12:19:19;;;;;;;7.40;1.40;;;;;;;-128.00;-1.00;-1.00;103273;1254;1010748;-68
2023/05/29 12:22:07;;;;;;;9.60;1.50;;;;;;;-128.00;-1.00;-1.00;103055;1257;1013348;-69
2023/05/29 12:24:58;;;;;;;8.70;1.60;;;;;;;-128.00;-1.00;-1.00;103736;1256;1012855;-70
2023/05/29 12:27:48;;;;;;;7.90;1.70;;;;;;;-128.00;-1.00;-1.00;103351;1258;1012334;-71
2023/05/29 12:30:41;;;;;;;9.80;1.40;;;;;;;-128.00;-1.00;-1.00;103175;1253;1010007;-69
2023/05/29 12:33:33;;;;;;;6.90;1.50;;;;;;;-128.00;-1.00;-1.00;103199;1253;1010709;-71
2023/05/29 12:36:26;;;;;;;7.20;1.40;;;;;;;-128.00;-1.00;-1.00;103190;1253;1015541;-70
2023/05/29 12:39:14;;;;;;;11.30;1.50;;;;;;;-128.00;-1.00;-1.00;103300;1253;1012864;-69
2023/05/29 12:42:02;;;;;;;7.90;1.50;;;;;;;-128.00;-1.00;-1.00;103599;1256;1013159;-69
2023/05/29 12:44:51;;;;;;;8.20;1.50;;;;;;;-128.00;-1.00;-1.00;103000;1256;1010134;-70
2023/05/29 12:48:25;;;;;;;10.10;1.50;;;;;;;-128.00;-1.00;-1.00;103048;1256;1010620;-71
2023/05/29 12:51:13;;;;;;;9.10;1.70;;;;;;;-128.00;-1.00;-1.00;103089;1256;1013139;-70
2023/05/29 12:54:02;;;;;;;7.20;1.50;;;;;;;-128.00;-1.00;-1.00;103145;1259;1013477;-69
2023/05/29 12:56:52;;;;;;;11.50;1.60;;;;;;;-128.00;-1.00;-1.00;104611;1256;1013587;-67
2023/05/29 12:59:41;;;;;;;9.40;1.60;;;;;;;-128.00;-1.00;-1.00;103455;1261;1010362;-68
2023/05/29 13:02:29;;;;;;;8.40;1.70;;;;;;;-128.00;-1.00;-1.00;104150;1254;1010988;-66
2023/05/29 13:05:18;;;;;;;8.50;1.40;;;;;;;-128.00;-1.00;-1.00;103161;1259;1013212;-69